Time;durP1;ratioP1;P1;durP2;ratioP2;P2;SDS_P1;SDS_P2;PMS_P1;PMS_P2;Temp;Humidity;BMP_temperature;BMP_pressure;BME280_temperature;BME280_humidity;BME280_pressure;Samples;Min_cycle;Max_cycle;Signal;HPM_P1;HPM_P2
2021/08/03 06:26:35;;;;;;;4.10;3.70;;;15.80;98.30;;;;;;5130118;23;20693;-81
2021/08/03 06:52:04;;;;;;;6.60;3.70;;;16.50;98.30;;;;;;5069477;22;2197410;-80
2021/08/03 06:54:19;;;;;;;3.80;3.13;;;16.60;98.30;;;;;;5173622;22;20431;-80
2021/08/03 10:13:59;;;;;;;3.03;2.43;;;21.90;98.30;;;;;;5020444;22;20412;31
2021/08/03 10:16:05;;;;;;;3.77;2.53;;;21.80;98.30;;;;;;5124789;23;20464;-80
2021/08/03 10:18:22;;;;;;;4.13;2.40;;;21.70;98.30;;;;;;5122263;23;20464;-80
2021/08/03 10:21:10;;;;;;;2.70;2.40;;;21.60;98.30;;;;;;5116804;23;20730;-79
2021/08/03 10:23:21;;;;;;;4.27;2.73;;;21.80;98.30;;;;;;5123260;23;20787;-79
2021/08/03 10:25:33;;;;;;;4.60;2.40;;;22.00;98.30;;;;;;5124846;23;20968;-79
2021/08/03 10:27:47;;;;;;;2.67;2.47;;;22.10;98.30;;;;;;5125379;23;20414;-79
2021/08/03 10:30:05;;;;;;;4.70;2.60;;;22.20;98.30;;;;;;5124118;23;20430;-80
2021/08/03 10:32:49;;;;;;;2.60;2.40;;;22.30;98.30;;;;;;5116764;23;20903;-79
2021/08/03 10:35:16;;;;;;;3.00;2.40;;;22.50;98.00;;;;;;5125069;23;20559;-80
2021/08/03 10:37:25;;;;;;;2.60;2.40;;;22.70;98.30;;;;;;5125268;23;20417;-79
2021/08/03 10:39:50;;;;;;;2.63;2.40;;;23.10;98.30;;;;;;5116825;23;20477;-80
2021/08/03 10:42:12;;;;;;;2.80;2.50;;;23.20;96.80;;;;;;5125203;23;20495;-80
2021/08/03 10:44:42;;;;;;;2.97;2.50;;;23.50;92.40;;;;;;5117077;23;20446;-80
2021/08/03 10:46:45;;;;;;;2.97;2.20;;;23.40;91.50;;;;;;5125090;23;20414;-80
2021/08/03 10:48:53;;;;;;;3.37;2.30;;;23.40;91.70;;;;;;5125217;23;20418;-80
2021/08/03 10:50:56;;;;;;;3.70;2.13;;;23.70;92.00;;;;;;5116798;23;20420;-80
2021/08/03 10:53:02;;;;;;;2.80;2.40;;;23.60;88.70;;;;;;5116593;23;20482;-80
2021/08/03 10:55:07;;;;;;;2.90;2.50;;;23.40;89.80;;;;;;5118010;23;20486;-80
2021/08/03 10:57:13;;;;;;;2.37;2.17;;;23.60;89.80;;;;;;5125249;23;20422;-80
2021/08/03 10:59:34;;;;;;;3.23;2.50;;;24.00;90.80;;;;;;5125083;23;20406;-80
2021/08/03 11:01:45;;;;;;;2.60;2.40;;;23.90;89.00;;;;;;5124601;23;20468;-80
2021/08/03 11:03:48;;;;;;;2.37;2.10;;;24.10;87.80;;;;;;5116374;23;20446;-80
2021/08/03 11:05:55;;;;;;;3.30;2.00;;;24.20;87.30;;;;;;5118169;23;20477;-80
2021/08/03 11:08:38;;;;;;;2.20;2.00;;;24.00;87.40;;;;;;5127028;23;20425;-79
2021/08/03 11:10:57;;;;;;;3.97;2.00;;;24.10;89.10;;;;;;5117610;23;20473;-79
2021/08/03 11:13:03;;;;;;;3.60;2.60;;;24.10;89.80;;;;;;5117100;23;20531;-78
2021/08/03 11:15:38;;;;;;;2.80;2.60;;;24.00;90.30;;;;;;5152925;23;20431;-79
2021/08/03 11:17:51;;;;;;;3.37;2.50;;;24.00;91.20;;;;;;5169635;23;20407;-80
2021/08/03 11:19:53;;;;;;;3.23;2.47;;;23.40;90.60;;;;;;5168806;23;20448;-79
2021/08/03 11:21:56;;;;;;;3.63;2.30;;;23.20;92.50;;;;;;5177364;23;20427;-79
2021/08/03 11:24:06;;;;;;;3.23;2.30;;;22.90;93.90;;;;;;5168904;23;20593;-79
2021/08/03 11:26:11;;;;;;;2.90;2.50;;;22.60;95.10;;;;;;5169286;23;20489;-80
2021/08/03 11:28:16;;;;;;;4.60;2.63;;;22.30;96.90;;;;;;5177483;23;20423;-79
2021/08/03 11:30:19;;;;;;;2.70;2.37;;;22.20;97.80;;;;;;5169258;23;20709;-80
2021/08/03 11:32:22;;;;;;;3.17;2.40;;;22.30;97.10;;;;;;5169520;23;20431;-81
2021/08/03 11:34:28;;;;;;;3.47;2.40;;;22.20;97.20;;;;;;5177235;23;20466;-80
2021/08/03 11:36:31;;;;;;;2.90;2.40;;;22.30;95.40;;;;;;5168927;23;20504;-80
2021/08/03 11:38:34;;;;;;;3.60;2.40;;;22.20;96.90;;;;;;5168971;23;20430;-79
2021/08/03 11:40:38;;;;;;;3.23;2.40;;;22.40;97.20;;;;;;5169248;23;20750;-79
2021/08/03 11:42:45;;;;;;;5.03;2.70;;;22.40;96.00;;;;;;5176807;23;20420;-79
2021/08/03 11:45:05;;;;;;;2.77;2.43;;;22.30;95.50;;;;;;5177551;23;20403;-79
2021/08/03 11:47:10;;;;;;;5.23;2.70;;;22.30;94.80;;;;;;5176697;23;20987;-79
2021/08/03 11:49:13;;;;;;;5.73;2.70;;;22.00;95.90;;;;;;5177328;23;20424;-79
2021/08/03 11:51:16;;;;;;;3.30;2.33;;;22.00;97.30;;;;;;5168825;23;20419;-80
2021/08/03 11:53:21;;;;;;;4.23;2.80;;;22.00;96.60;;;;;;5168647;23;20772;-81
2021/08/03 11:55:24;;;;;;;3.03;2.40;;;21.90;96.10;;;;;;5169174;23;20412;-80
2021/08/03 11:57:30;;;;;;;2.47;2.27;;;21.90;96.40;;;;;;5169022;23;20428;-80
2021/08/03 11:59:36;;;;;;;3.00;2.43;;;22.00;97.30;;;;;;5177024;23;20426;-81
2021/08/03 12:01:52;;;;;;;3.40;2.40;;;22.20;97.70;;;;;;5168107;23;20562;-80
2021/08/03 12:03:56;;;;;;;2.77;2.50;;;22.30;97.80;;;;;;5177184;23;20762;-80
2021/08/03 12:06:00;;;;;;;2.63;2.40;;;22.60;98.20;;;;;;5169553;23;20427;-81
2021/08/03 12:08:06;;;;;;;3.43;2.30;;;22.60;95.80;;;;;;5169617;23;20439;-81
2021/08/03 12:10:10;;;;;;;3.70;2.20;;;22.70;95.50;;;;;;5177509;23;20388;-81
2021/08/03 12:12:15;;;;;;;3.73;2.10;;;22.90;95.90;;;;;;5168957;23;20435;-80
2021/08/03 12:14:18;;;;;;;4.47;2.60;;;23.20;95.70;;;;;;5168586;23;20535;-80
2021/08/03 12:16:32;;;;;;;3.97;2.20;;;23.50;95.30;;;;;;5177755;23;20412;-81
2021/08/03 12:18:37;;;;;;;2.50;2.27;;;23.80;94.20;;;;;;5169174;23;20407;-81
2021/08/03 12:20:42;;;;;;;2.43;2.00;;;24.50;94.10;;;;;;5168733;23;20452;-81
2021/08/03 12:22:45;;;;;;;2.40;2.20;;;24.70;88.90;;;;;;5176088;23;20515;-81
2021/08/03 12:24:55;;;;;;;2.50;2.13;;;24.60;87.40;;;;;;5169471;23;20435;-81
2021/08/03 12:27:12;;;;;;;2.53;2.33;;;24.90;86.60;;;;;;5177802;23;20934;-81
2021/08/03 12:29:15;;;;;;;3.00;2.70;;;25.30;85.70;;;;;;5169541;23;20790;-81
2021/08/03 12:31:20;;;;;;;2.40;2.20;;;25.60;85.60;;;;;;5169083;23;20454;-81
2021/08/03 12:33:33;;;;;;;2.27;2.07;;;25.80;84.40;;;;;;5168586;23;20452;-81
2021/08/03 12:35:39;;;;;;;3.23;2.20;;;25.80;83.60;;;;;;5168819;23;20457;-81
2021/08/03 12:37:42;;;;;;;2.57;2.23;;;25.30;83.70;;;;;;5168589;23;20416;-81
2021/08/03 12:39:48;;;;;;;50.17;44.87;;;24.80;86.40;;;;;;5177187;23;20420;-81
2021/08/03 12:42:03;;;;;;;57.73;51.53;;;24.70;88.10;;;;;;5177758;23;20460;-81
2021/08/03 12:44:05;;;;;;;20.00;17.90;;;24.60;89.50;;;;;;5177231;23;20442;-81
2021/08/03 12:46:09;;;;;;;5.47;4.90;;;24.50;89.50;;;;;;5177401;23;20416;-81
2021/08/03 12:48:12;;;;;;;3.60;3.30;;;24.10;87.50;;;;;;5169464;23;20424;-80
2021/08/03 12:50:16;;;;;;;3.20;2.67;;;23.70;87.40;;;;;;5168496;23;20485;-81
2021/08/03 12:52:21;;;;;;;4.77;3.10;;;23.50;88.60;;;;;;5168786;23;20992;-81
2021/08/03 12:54:24;;;;;;;3.33;2.90;;;23.50;88.70;;;;;;5167953;23;21007;-81
2021/08/03 12:56:36;;;;;;;3.30;2.70;;;23.30;89.10;;;;;;5168826;23;20424;-81
2021/08/03 12:58:42;;;;;;;3.53;2.77;;;23.20;90.20;;;;;;5179541;23;20423;-81
2021/08/03 13:00:45;;;;;;;2.97;2.60;;;23.10;90.00;;;;;;5171165;23;20750;-82
2021/08/03 13:02:48;;;;;;;5.60;4.40;;;23.00;88.80;;;;;;5170137;23;20432;-81
2021/08/03 13:04:52;;;;;;;6.40;5.77;;;22.90;89.20;;;;;;5175179;23;20432;-80
2021/08/03 13:07:00;;;;;;;5.10;3.87;;;22.90;90.00;;;;;;5168561;23;20451;-80
2021/08/03 13:09:03;;;;;;;8.33;6.07;;;23.00;89.00;;;;;;5166863;23;20442;-82
2021/08/03 13:11:09;;;;;;;3.23;2.30;;;22.90;88.60;;;;;;5170802;23;20932;-81
2021/08/03 13:13:13;;;;;;;2.50;2.30;;;22.80;87.80;;;;;;5178385;23;20435;-81
2021/08/03 13:15:17;;;;;;;2.93;2.30;;;22.60;89.40;;;;;;5170161;23;20436;-81
2021/08/03 13:17:22;;;;;;;2.67;2.47;;;22.80;90.40;;;;;;5178536;23;20424;-81
2021/08/03 13:19:26;;;;;;;2.80;2.33;;;23.20;91.10;;;;;;5170025;23;20427;-81
2021/08/03 13:21:29;;;;;;;2.43;2.23;;;23.50;89.30;;;;;;5178163;23;20447;-81
2021/08/03 13:23:34;;;;;;;2.40;2.20;;;23.40;86.90;;;;;;5177907;23;20432;-81
2021/08/03 13:25:38;;;;;;;2.27;2.07;;;23.00;87.00;;;;;;5177432;23;20427;-81
2021/08/03 13:27:41;;;;;;;4.57;2.20;;;22.50;88.10;;;;;;5170808;23;20428;-81
2021/08/03 13:29:44;;;;;;;2.80;2.20;;;22.20;89.20;;;;;;5178528;23;20416;-80
2021/08/03 13:31:47;;;;;;;2.50;2.30;;;22.00;90.10;;;;;;5169705;23;20434;-81
2021/08/03 13:33:50;;;;;;;2.23;2.03;;;22.00;90.80;;;;;;5169787;23;20522;-80
2021/08/03 13:35:53;;;;;;;2.27;2.07;;;22.00;90.20;;;;;;5178509;23;21021;-81
2021/08/03 13:37:56;;;;;;;2.67;2.20;;;22.00;90.70;;;;;;5178124;23;20430;-80
2021/08/03 13:40:01;;;;;;;2.50;2.30;;;21.90;91.00;;;;;;5176557;23;20423;-80
2021/08/03 13:42:05;;;;;;;2.30;2.10;;;21.70;91.90;;;;;;5169494;23;20475;-81
2021/08/03 13:44:09;;;;;;;4.00;2.20;;;21.90;92.70;;;;;;5168964;23;20483;-81
2021/08/03 13:46:14;;;;;;;2.53;2.33;;;21.90;92.20;;;;;;5178011;23;20400;-80
2021/08/03 13:48:17;;;;;;;2.47;2.27;;;21.90;92.80;;;;;;5169826;23;20430;-81
2021/08/03 13:50:22;;;;;;;4.33;2.60;;;22.00;92.70;;;;;;5178079;23;20424;-81
2021/08/03 13:52:26;;;;;;;3.23;2.53;;;22.60;92.60;;;;;;5170260;23;20503;-81
2021/08/03 13:54:30;;;;;;;3.23;2.30;;;22.90;91.40;;;;;;5170566;23;20444;-80
2021/08/03 13:56:34;;;;;;;4.60;2.57;;;23.10;91.80;;;;;;5170474;23;20453;-81
2021/08/03 13:58:38;;;;;;;5.33;2.40;;;23.20;91.40;;;;;;5171570;23;21083;-81
2021/08/03 14:00:41;;;;;;;2.50;2.30;;;23.20;90.90;;;;;;5178495;23;20423;-81
2021/08/03 14:02:44;;;;;;;2.90;2.20;;;23.10;90.30;;;;;;5178619;23;20439;-81
2021/08/03 14:04:47;;;;;;;3.03;2.40;;;22.90;90.70;;;;;;5171447;23;20428;-81
2021/08/03 14:06:52;;;;;;;4.87;2.43;;;22.90;91.60;;;;;;5179834;23;20959;-81
2021/08/03 14:08:56;;;;;;;2.73;2.53;;;23.00;91.20;;;;;;5178832;23;20477;-81
2021/08/03 14:11:01;;;;;;;5.20;2.60;;;23.00;91.50;;;;;;5178705;23;20423;-82
2021/08/03 14:13:05;;;;;;;2.57;2.33;;;23.00;92.40;;;;;;5169996;23;20490;-81
2021/08/03 14:15:09;;;;;;;2.60;2.30;;;23.20;92.80;;;;;;5170747;23;20773;-81
2021/08/03 14:17:16;;;;;;;3.10;2.80;;;23.20;92.70;;;;;;5170818;23;20486;-81
2021/08/03 14:19:20;;;;;;;4.53;2.23;;;23.30;90.40;;;;;;5178632;23;20483;-80
2021/08/03 14:21:25;;;;;;;2.80;2.10;;;23.40;90.00;;;;;;5178076;23;20490;-80
2021/08/03 14:23:28;;;;;;;3.60;2.20;;;23.60;88.60;;;;;;5170220;23;20480;-81
2021/08/03 14:25:31;;;;;;;2.90;2.10;;;24.10;87.60;;;;;;5171014;23;20510;-81
2021/08/03 14:27:35;;;;;;;2.30;2.10;;;24.60;85.10;;;;;;5179626;23;20753;-80
2021/08/03 14:29:45;;;;;;;4.33;2.37;;;24.70;85.50;;;;;;5179706;23;20407;-81
2021/08/03 14:31:48;;;;;;;2.73;2.50;;;24.50;84.50;;;;;;5170680;23;20404;-81
2021/08/03 14:33:52;;;;;;;2.40;2.20;;;24.30;84.50;;;;;;5178263;23;20765;-81
2021/08/03 14:35:57;;;;;;;2.77;2.20;;;24.80;84.40;;;;;;5179022;23;20514;-81
2021/08/03 14:38:01;;;;;;;2.93;2.30;;;25.60;83.20;;;;;;5179375;23;20421;-82
2021/08/03 14:40:06;;;;;;;3.10;2.23;;;25.60;81.10;;;;;;5179032;23;20424;-81
2021/08/03 14:42:09;;;;;;;4.13;2.47;;;25.00;82.40;;;;;;5179208;23;20479;-81
2021/08/03 14:44:13;;;;;;;2.33;2.13;;;24.50;83.20;;;;;;5178782;23;20468;-82
2021/08/03 14:46:20;;;;;;;3.23;2.30;;;24.10;84.30;;;;;;5170616;23;20431;-82
2021/08/03 14:48:24;;;;;;;2.23;2.00;;;23.80;85.40;;;;;;5179806;23;20734;-82
2021/08/03 14:50:29;;;;;;;2.70;2.50;;;23.60;85.80;;;;;;5179277;23;20416;-81
2021/08/03 14:52:35;;;;;;;2.30;2.10;;;23.50;86.10;;;;;;5181097;23;20404;-81
2021/08/03 14:54:38;;;;;;;2.13;1.93;;;23.50;87.40;;;;;;5180394;23;20932;-81
2021/08/03 14:56:42;;;;;;;2.63;2.43;;;23.60;88.60;;;;;;5180323;23;20438;-81
2021/08/03 14:58:47;;;;;;;2.60;2.23;;;23.70;89.00;;;;;;5180552;23;20428;-81
2021/08/03 15:00:50;;;;;;;3.17;2.47;;;23.90;88.60;;;;;;5180542;23;20487;-81
2021/08/03 15:02:59;;;;;;;3.80;3.50;;;23.90;88.00;;;;;;5172242;23;20482;-81
2021/08/03 15:05:05;;;;;;;3.23;2.93;;;24.00;89.30;;;;;;5179946;23;20403;-81
2021/08/03 15:07:09;;;;;;;4.10;3.70;;;24.30;88.60;;;;;;5180137;23;20510;-82
2021/08/03 15:09:12;;;;;;;4.10;3.70;;;24.70;86.80;;;;;;5171497;23;20427;-82
2021/08/03 15:11:15;;;;;;;5.40;4.90;;;24.90;86.40;;;;;;5171933;23;20434;-81
2021/08/03 15:13:18;;;;;;;5.00;3.80;;;25.00;86.50;;;;;;5181239;23;20435;-82
2021/08/03 15:15:23;;;;;;;3.43;3.13;;;25.20;85.60;;;;;;5180016;23;20983;-81
2021/08/03 15:17:26;;;;;;;3.47;3.17;;;24.90;85.60;;;;;;5180109;23;20937;-81
2021/08/03 15:19:32;;;;;;;4.00;3.70;;;25.10;85.60;;;;;;5180088;23;20483;-81
2021/08/03 15:21:35;;;;;;;3.53;2.63;;;25.00;86.20;;;;;;5180626;23;20494;-81
2021/08/03 15:23:38;;;;;;;4.03;2.80;;;24.90;86.60;;;;;;5180803;23;20454;-81
2021/08/03 15:25:41;;;;;;;3.43;2.50;;;24.70;87.60;;;;;;5171736;23;20754;-81
2021/08/03 15:27:46;;;;;;;3.73;2.50;;;24.50;88.70;;;;;;5180371;23;20424;-82
2021/08/03 15:29:49;;;;;;;3.97;2.80;;;24.40;89.10;;;;;;5180007;23;20523;-81
2021/08/03 15:31:52;;;;;;;3.60;3.00;;;24.20;89.30;;;;;;5171849;23;20432;-81
2021/08/03 15:33:55;;;;;;;4.67;4.27;;;24.10;89.30;;;;;;5179758;23;20467;-81
2021/08/03 15:36:01;;;;;;;3.90;3.50;;;23.90;89.50;;;;;;5180105;23;20427;-82
2021/08/03 15:38:05;;;;;;;3.80;3.50;;;23.70;89.80;;;;;;5180403;23;20411;-82
2021/08/03 15:40:11;;;;;;;3.17;2.87;;;23.50;90.60;;;;;;5180018;23;20423;-81
2021/08/03 15:42:18;;;;;;;3.70;3.40;;;23.30;91.80;;;;;;5172090;23;20430;-81
2021/08/03 15:44:25;;;;;;;3.70;3.07;;;23.10;91.30;;;;;;5179590;23;20443;-81
2021/08/03 15:46:28;;;;;;;3.37;2.80;;;23.10;91.10;;;;;;5180587;23;20404;-81
2021/08/03 15:48:36;;;;;;;3.43;2.80;;;23.10;91.40;;;;;;5181040;23;20423;-81
2021/08/03 15:50:41;;;;;;;3.30;2.70;;;23.10;92.40;;;;;;5180760;23;20489;-81
2021/08/03 15:52:47;;;;;;;3.20;2.60;;;22.90;92.50;;;;;;5179935;23;20401;-80
2021/08/03 15:54:54;;;;;;;3.03;2.53;;;22.80;92.00;;;;;;5180033;23;20428;-81
2021/08/03 15:56:59;;;;;;;3.40;2.70;;;22.80;92.10;;;;;;5180030;23;20408;-81
2021/08/03 15:59:03;;;;;;;5.23;2.53;;;22.90;92.40;;;;;;5171860;23;20928;-81
2021/08/03 16:01:06;;;;;;;3.20;2.67;;;22.80;92.50;;;;;;5179714;23;20447;-81
2021/08/03 16:03:11;;;;;;;3.07;2.80;;;22.90;92.00;;;;;;5170514;23;20940;-81
2021/08/03 16:05:17;;;;;;;7.50;5.27;;;22.80;91.80;;;;;;5180180;23;20901;-81
2021/08/03 16:07:20;;;;;;;3.77;3.10;;;22.70;92.80;;;;;;5180488;23;20820;-81
2021/08/03 16:09:28;;;;;;;3.30;2.30;;;22.70;92.50;;;;;;5180533;23;20455;-80
2021/08/03 16:11:33;;;;;;;2.90;2.40;;;22.70;93.00;;;;;;5179284;23;20450;-80
2021/08/03 16:13:38;;;;;;;3.10;2.80;;;22.30;92.60;;;;;;5178934;23;20463;-80
2021/08/03 16:15:41;;;;;;;2.87;2.53;;;22.30;93.40;;;;;;5179527;23;20869;-81
2021/08/03 16:17:54;;;;;;;2.80;2.60;;;22.00;93.40;;;;;;5179133;23;20418;-80
2021/08/03 16:20:01;;;;;;;6.63;2.60;;;22.10;93.50;;;;;;5179486;23;20487;-81
2021/08/03 16:22:05;;;;;;;3.47;3.00;;;22.20;93.10;;;;;;5180871;23;20920;-81
2021/08/03 16:24:08;;;;;;;3.60;3.30;;;22.30;93.20;;;;;;5178707;23;20443;-80
2021/08/03 16:26:15;;;;;;;3.97;2.80;;;22.30;93.10;;;;;;5179255;23;20483;-80
2021/08/03 16:28:18;;;;;;;2.97;2.60;;;22.30;93.40;;;;;;5178822;23;20475;-80
2021/08/03 16:30:33;;;;;;;;;;;;;;;;;;;;;
2021/08/03 16:32:41;;;;;;;3.70;3.33;;;22.40;94.20;;;;;;5178150;23;20404;-80
2021/08/03 16:35:02;;;;;;;2.90;2.67;;;22.50;94.30;;;;;;5171418;23;20420;-80
2021/08/03 16:37:10;;;;;;;3.37;2.77;;;22.50;93.80;;;;;;5170512;23;20438;-80
2021/08/03 16:39:17;;;;;;;3.47;2.90;;;22.50;94.10;;;;;;5179349;23;20499;-81
2021/08/03 16:41:23;;;;;;;2.93;2.50;;;22.50;94.40;;;;;;5177689;23;20427;-80
2021/08/03 16:43:27;;;;;;;4.67;3.80;;;22.40;93.50;;;;;;5179164;23;20447;-80
2021/08/03 16:45:31;;;;;;;4.73;4.07;;;22.30;93.90;;;;;;5171656;23;20495;-81
2021/08/03 16:47:34;;;;;;;7.17;3.33;;;22.30;94.10;;;;;;5170133;23;20559;-81
2021/08/03 16:49:43;;;;;;;3.73;3.10;;;22.40;94.60;;;;;;5179171;23;20499;-81
2021/08/03 16:51:47;;;;;;;4.63;3.37;;;22.30;94.20;;;;;;5179243;23;20422;-81
2021/08/03 16:53:51;;;;;;;4.17;3.33;;;22.20;94.30;;;;;;5178367;23;20531;-81
2021/08/03 16:55:55;;;;;;;4.00;3.27;;;22.30;94.00;;;;;;5179123;23;20426;-81
2021/08/03 16:57:59;;;;;;;7.60;5.50;;;22.20;94.00;;;;;;5170603;23;20424;-82
2021/08/03 17:00:03;;;;;;;4.40;3.40;;;22.20;94.30;;;;;;5178892;23;20495;-81
2021/08/03 17:02:16;;;;;;;9.70;4.97;;;22.20;94.20;;;;;;5170877;23;20819;-82
2021/08/03 17:04:28;;;;;;;7.20;3.70;;;22.20;94.50;;;;;;5177902;23;20754;-82
2021/08/03 17:06:39;;;;;;;7.40;4.87;;;22.20;94.20;;;;;;5171008;23;20435;-81
2021/08/03 17:08:51;;;;;;;8.43;5.10;;;22.10;94.60;;;;;;5170109;23;20452;-81
2021/08/03 17:11:00;;;;;;;7.20;5.87;;;22.10;94.70;;;;;;5178615;23;20732;-81
2021/08/03 17:13:17;;;;;;;6.23;4.17;;;22.10;95.00;;;;;;5178692;23;20467;-81
2021/08/03 17:15:20;;;;;;;6.73;5.90;;;22.10;94.80;;;;;;5170226;23;20510;-81
2021/08/03 17:17:37;;;;;;;6.00;4.83;;;22.10;94.60;;;;;;5177991;23;20976;-81
2021/08/03 17:19:44;;;;;;;4.57;3.90;;;22.10;94.40;;;;;;5170164;23;20416;-82
2021/08/03 17:21:50;;;;;;;4.10;3.47;;;22.00;94.80;;;;;;5178896;23;20405;-81
2021/08/03 17:24:08;;;;;;;13.20;4.87;;;21.90;94.40;;;;;;5169723;23;20460;-81
2021/08/03 17:26:12;;;;;;;3.80;3.40;;;21.90;94.60;;;;;;5179828;23;20407;-81
2021/08/03 17:28:16;;;;;;;4.03;3.20;;;21.80;95.00;;;;;;5171129;23;20431;-81
2021/08/03 17:30:23;;;;;;;5.53;3.83;;;21.70;94.90;;;;;;5170282;23;20486;-82
2021/08/03 17:32:31;;;;;;;5.40;3.97;;;21.70;95.00;;;;;;5177896;23;20459;-81
2021/08/03 17:34:36;;;;;;;5.03;3.07;;;21.60;95.20;;;;;;5178779;23;21017;-82
2021/08/03 17:36:40;;;;;;;5.17;4.00;;;21.50;95.70;;;;;;5179215;23;20451;-82
2021/08/03 17:38:43;;;;;;;4.73;3.70;;;21.50;95.90;;;;;;5178788;23;20424;-81
2021/08/03 17:40:55;;;;;;;4.00;3.30;;;21.50;96.40;;;;;;5171573;23;20427;-81
2021/08/03 17:43:02;;;;;;;4.00;3.30;;;21.50;96.60;;;;;;5179043;23;20444;-82
2021/08/03 17:45:09;;;;;;;4.37;3.97;;;21.50;96.80;;;;;;5179543;23;20501;-81
2021/08/03 17:47:17;;;;;;;4.50;3.67;;;21.40;97.00;;;;;;5171318;23;21102;-81
2021/08/03 17:49:20;;;;;;;4.30;3.20;;;21.40;97.10;;;;;;5186356;23;20425;-81
2021/08/03 17:51:27;;;;;;;5.90;3.20;;;21.40;97.00;;;;;;5192052;23;20416;-81
2021/08/03 17:53:33;;;;;;;5.80;3.70;;;21.40;96.90;;;;;;5180110;23;20447;-80
2021/08/03 17:55:40;;;;;;;5.83;5.10;;;21.30;96.90;;;;;;5179634;23;20408;-80
2021/08/03 17:57:49;;;;;;;5.90;4.77;;;21.30;97.60;;;;;;5179712;23;20470;-80
2021/08/03 17:59:53;;;;;;;4.10;3.70;;;21.30;98.00;;;;;;5193291;23;20412;-84
2021/08/03 18:01:59;;;;;;;5.87;4.83;;;21.30;98.30;;;;;;5185574;23;20412;-83
2021/08/03 18:04:03;;;;;;;3.33;2.97;;;21.20;98.30;;;;;;5187513;23;20452;-83
2021/08/03 18:06:08;;;;;;;5.63;3.23;;;21.10;98.10;;;;;;5182886;23;20415;-82
2021/08/03 18:08:12;;;;;;;5.77;3.67;;;21.00;98.30;;;;;;5172084;23;20427;-82
2021/08/03 18:10:19;;;;;;;4.70;3.47;;;21.00;98.30;;;;;;5170095;23;20435;-83
2021/08/03 18:12:23;;;;;;;6.37;4.00;;;20.90;98.30;;;;;;5178482;23;20404;-83
2021/08/03 18:14:26;;;;;;;4.40;4.00;;;21.00;98.30;;;;;;5178429;23;20482;-83
2021/08/03 18:16:30;;;;;;;6.17;3.50;;;21.00;98.30;;;;;;5169550;23;20905;-83
2021/08/03 18:18:37;;;;;;;6.60;5.90;;;20.90;98.30;;;;;;5170195;23;20424;-83
2021/08/03 18:20:40;;;;;;;5.77;5.17;;;20.90;98.30;;;;;;5179341;23;20423;-82
2021/08/03 18:22:44;;;;;;;5.17;4.67;;;20.90;98.30;;;;;;5169491;23;20507;-81
2021/08/03 18:24:48;;;;;;;5.90;5.30;;;20.80;98.30;;;;;;5178375;23;20428;-83
2021/08/03 18:27:03;;;;;;;5.47;4.97;;;20.70;98.30;;;;;;5170447;23;20508;-82
2021/08/03 18:29:18;;;;;;;5.40;4.90;;;20.70;98.30;;;;;;5170932;23;20435;-82
2021/08/03 18:31:31;;;;;;;7.10;5.40;;;20.70;98.30;;;;;;5178752;23;20422;-82
2021/08/03 18:33:41;;;;;;;8.40;7.50;;;20.70;98.30;;;;;;5170495;23;20472;-82
2021/08/03 18:35:48;;;;;;;8.20;7.10;;;20.60;98.30;;;;;;5179531;23;20487;-83
2021/08/03 18:37:57;;;;;;;11.60;8.90;;;20.60;98.30;;;;;;5179122;23;20399;-83
2021/08/03 18:40:01;;;;;;;8.43;7.53;;;20.60;98.30;;;;;;5178705;23;20427;-83
2021/08/03 18:42:09;;;;;;;9.20;6.70;;;20.50;98.30;;;;;;5178812;23;20885;-82
2021/08/03 18:44:16;;;;;;;6.27;5.67;;;20.50;98.30;;;;;;5177021;23;21178;-83
2021/08/03 18:46:33;;;;;;;6.23;5.60;;;20.50;98.30;;;;;;5169989;23;20436;-83
2021/08/03 18:48:38;;;;;;;7.93;5.80;;;20.50;98.30;;;;;;5179442;23;20490;-82
2021/08/03 18:50:42;;;;;;;7.57;5.30;;;20.40;98.30;;;;;;5170122;23;20507;-83
2021/08/03 18:52:48;;;;;;;7.00;5.57;;;20.40;98.30;;;;;;5179088;23;20455;-83
2021/08/03 18:54:51;;;;;;;6.43;5.80;;;20.30;98.30;;;;;;5171651;23;20408;-83
2021/08/03 18:56:54;;;;;;;14.80;12.80;;;20.30;98.30;;;;;;5170536;23;20498;-83
2021/08/03 18:58:58;;;;;;;14.60;10.93;;;20.30;98.30;;;;;;5171275;23;20429;-83
2021/08/03 19:01:01;;;;;;;7.80;7.00;;;20.30;98.30;;;;;;5178450;23;20433;-82
2021/08/03 19:03:05;;;;;;;8.87;7.10;;;20.30;98.30;;;;;;5170360;23;20454;-82
2021/08/03 19:05:15;;;;;;;7.00;5.67;;;20.20;98.30;;;;;;5179182;23;20990;-83
2021/08/03 19:07:27;;;;;;;6.67;6.00;;;20.20;98.30;;;;;;5179493;23;20419;-83
2021/08/03 19:09:34;;;;;;;8.40;7.60;;;20.10;98.30;;;;;;5170656;23;20488;-82
2021/08/03 19:11:39;;;;;;;6.00;5.40;;;20.00;98.30;;;;;;5170513;23;20443;-82
2021/08/03 19:14:00;;;;;;;7.57;6.10;;;19.90;98.30;;;;;;5179057;23;20797;-82
2021/08/03 19:16:06;;;;;;;12.23;9.87;;;19.90;98.30;;;;;;5171237;23;20407;-83
2021/08/03 19:18:11;;;;;;;9.80;8.57;;;19.80;98.30;;;;;;5179835;23;20420;-83
2021/08/03 19:20:16;;;;;;;10.53;9.13;;;19.80;98.30;;;;;;5179422;23;20437;-83
2021/08/03 19:22:24;;;;;;;10.37;9.30;;;19.70;98.30;;;;;;5171405;23;20936;-82
2021/08/03 19:24:32;;;;;;;11.60;10.40;;;19.70;98.30;;;;;;5179325;23;20436;-82
